Time;durP1;ratioP1;P1;durP2;ratioP2;P2;SDS_P1;SDS_P2;PMS_P1;PMS_P2;Temp;Humidity;BMP_temperature;BMP_pressure;BME280_temperature;BME280_humidity;BME280_pressure;Samples;Min_cycle;Max_cycle;Signal;HPM_P1;HPM_P2
2022/02/22 00:00:25;;;;;;;;;;;;;;;3.97;80.26;100916.09;2104896;28;44574;-69
2022/02/22 00:01:27;;;;;;;;;;;;;;;3.97;81.32;100931.13;2104403;28;46356;-69
2022/02/22 00:02:28;;;;;;;;;;;;;;;3.93;81.63;100929.31;2104507;28;46378;-69
2022/02/22 00:03:32;;;;;;;;;;;;;;;3.90;81.34;100929.31;2104890;28;44107;-69
2022/02/22 00:04:36;;;;;;;;;;;;;;;3.86;82.39;100933.72;2105054;28;45947;-70
2022/02/22 00:05:38;;;;;;;;;;;;;;;3.82;82.16;100946.06;2105332;28;20767;-70
2022/02/22 00:06:40;;;;;;;;;;;;;;;3.80;81.98;100939.88;2104969;28;45373;-70
2022/02/22 00:07:41;;;;;;;;;;;;;;;3.81;83.18;100946.94;2104866;28;45055;-70
2022/02/22 00:08:43;;;;;;;;;;;;;;;3.77;82.68;100954.88;2104912;28;44571;-69
2022/02/22 00:09:44;;;;;;;;;;;;;;;3.73;83.14;100946.03;2104454;28;44422;-69
2022/02/22 00:10:46;;;;;;;;;;;;;;;3.76;82.63;100961.03;2104826;28;43011;-69
2022/02/22 00:11:48;;;;;;;;;;;;;;;3.79;82.63;100966.34;2104475;28;40486;-69
2022/02/22 00:12:49;;;;;;;;;;;;;;;3.77;82.69;100960.16;2112812;28;46292;-69
2022/02/22 00:13:52;;;;;;;;;;;;;;;3.83;82.23;100961.06;2112440;28;42823;-69
2022/02/22 00:14:53;;;;;;;;;;;;;;;3.94;81.97;100978.78;2104580;28;44019;-69
2022/02/22 00:15:59;;;;;;;;;;;;;;;3.88;82.16;100978.75;2105542;28;19928;-70
2022/02/22 00:17:00;;;;;;;;;;;;;;;3.85;82.26;100976.97;2105083;28;44225;-69
2022/02/22 00:18:02;;;;;;;;;;;;;;;3.83;82.97;100974.31;2104413;28;45764;-69
2022/02/22 00:19:03;;;;;;;;;;;;;;;3.82;82.46;100969.91;2104927;28;41687;-69
2022/02/22 00:20:10;;;;;;;;;;;;;;;3.80;82.65;100976.97;2112341;28;44471;-70
2022/02/22 00:21:12;;;;;;;;;;;;;;;3.75;82.28;100973.41;2112021;28;44916;-70
2022/02/22 00:22:14;;;;;;;;;;;;;;;3.74;83.15;100982.19;2104709;28;44024;-70
2022/02/22 00:23:15;;;;;;;;;;;;;;;3.71;83.23;100987.47;2105694;28;21427;-69
2022/02/22 00:24:19;;;;;;;;;;;;;;;3.72;82.88;100991.03;2104695;28;44967;-69
2022/02/22 00:25:21;;;;;;;;;;;;;;;3.72;83.90;100986.59;2104315;28;44217;-69
2022/02/22 00:26:23;;;;;;;;;;;;;;;3.69;82.30;100989.22;2127819;22;46804;-69
2022/02/22 00:27:26;;;;;;;;;;;;;;;3.69;82.43;100997.16;2125361;27;20957;-69
2022/02/22 00:28:27;;;;;;;;;;;;;;;3.65;82.35;101002.47;2129223;27;44704;-69
2022/02/22 00:29:29;;;;;;;;;;;;;;;3.60;83.04;101005.06;2129971;27;40219;-68
2022/02/22 00:30:31;;;;;;;;;;;;;;;3.62;82.78;100998.91;2121488;27;45385;-69
2022/02/22 00:31:36;;;;;;;;;;;;;;;3.58;82.84;101002.41;2122251;27;19951;-71
2022/02/22 00:32:39;;;;;;;;;;;;;;;3.54;83.02;101005.03;2122654;27;20701;-69
2022/02/22 00:33:41;;;;;;;;;;;;;;;3.56;82.78;101008.56;2121891;27;44491;-69
2022/02/22 00:34:43;;;;;;;;;;;;;;;3.48;83.32;101003.19;2121161;27;41662;-68
2022/02/22 00:35:44;;;;;;;;;;;;;;;3.47;84.02;101003.22;2121836;27;43228;-69
2022/02/22 00:36:46;;;;;;;;;;;;;;;3.45;84.00;101005.84;2121623;27;44902;-70
2022/02/22 00:37:48;;;;;;;;;;;;;;;3.42;84.48;101012.00;2121707;27;44297;-70
2022/02/22 00:38:49;;;;;;;;;;;;;;;3.43;84.51;101007.59;2121475;27;44038;-70
2022/02/22 00:39:51;;;;;;;;;;;;;;;3.37;84.22;101012.84;2121682;27;43611;-70
2022/02/22 00:40:53;;;;;;;;;;;;;;;3.39;84.72;101027.88;2121677;27;44520;-69
2022/02/22 00:41:54;;;;;;;;;;;;;;;3.39;84.33;101024.31;2121619;27;43062;-70
2022/02/22 00:42:56;;;;;;;;;;;;;;;3.41;83.92;101027.84;2121602;27;44770;-70
2022/02/22 00:43:58;;;;;;;;;;;;;;;3.43;83.87;101029.66;2122252;27;19920;-70
2022/02/22 00:45:01;;;;;;;;;;;;;;;3.42;84.22;101033.16;2121526;27;44246;-70
2022/02/22 00:46:03;;;;;;;;;;;;;;;3.47;84.49;101029.69;2121969;27;44437;-70
2022/02/22 00:47:07;;;;;;;;;;;;;;;3.47;83.99;101042.91;2121465;27;43426;-70
2022/02/22 00:48:08;;;;;;;;;;;;;;;3.58;84.04;101033.28;2121536;27;44389;-70
2022/02/22 00:49:10;;;;;;;;;;;;;;;3.58;83.14;101046.53;2116020;27;44220;-70
2022/02/22 00:50:11;;;;;;;;;;;;;;;3.55;83.47;101052.69;2112333;28;44658;-70
2022/02/22 00:51:13;;;;;;;;;;;;;;;3.60;83.26;101056.25;2112632;28;42839;-67
2022/02/22 00:52:14;;;;;;;;;;;;;;;3.67;84.00;101059.81;2113232;28;43177;-68
2022/02/22 00:53:16;;;;;;;;;;;;;;;3.61;83.74;101054.50;2112899;27;38272;-68
2022/02/22 00:54:17;;;;;;;;;;;;;;;3.59;83.70;101066.84;2112897;28;45228;-68
2022/02/22 00:55:19;;;;;;;;;;;;;;;3.61;84.18;101073.91;2112633;28;44910;-69
2022/02/22 00:56:20;;;;;;;;;;;;;;;3.63;84.52;101066.84;2112722;28;44192;-69
2022/02/22 00:57:22;;;;;;;;;;;;;;;3.62;84.85;101066.84;2114454;28;44100;-69
2022/02/22 00:58:23;;;;;;;;;;;;;;;3.60;83.50;101069.47;2115467;27;42576;-69
2022/02/22 00:59:25;;;;;;;;;;;;;;;3.60;84.04;101063.31;2113637;28;45561;-69
2022/02/22 01:00:29;;;;;;;;;;;;;;;3.61;83.94;101070.38;2124019;27;45270;-69
2022/02/22 01:01:31;;;;;;;;;;;;;;;3.57;83.71;101074.78;2123892;27;19924;-69
2022/02/22 01:02:32;;;;;;;;;;;;;;;3.61;83.97;101076.56;2123977;27;37546;-69
2022/02/22 01:03:36;;;;;;;;;;;;;;;3.62;84.03;101072.13;2122579;27;46478;-69
2022/02/22 01:04:38;;;;;;;;;;;;;;;3.57;83.13;101073.84;2123079;27;44320;-69
2022/02/22 01:05:40;;;;;;;;;;;;;;;3.62;82.56;101073.06;2122844;27;44390;-69
2022/02/22 01:06:41;;;;;;;;;;;;;;;3.66;82.97;101081.00;2122977;27;43838;-69
2022/02/22 01:07:43;;;;;;;;;;;;;;;3.66;82.08;101079.25;2122453;27;43264;-69
2022/02/22 01:08:44;;;;;;;;;;;;;;;3.72;82.57;101092.53;2123230;27;46353;-69
2022/02/22 01:09:47;;;;;;;;;;;;;;;3.75;81.96;101092.56;2123642;27;19931;-69
2022/02/22 01:10:48;;;;;;;;;;;;;;;3.71;82.30;101088.09;2123000;27;45370;-69
2022/02/22 01:11:50;;;;;;;;;;;;;;;3.66;80.43;101089.84;2122651;27;45032;-69
2022/02/22 01:12:51;;;;;;;;;;;;;;;3.62;80.90;101101.25;2123077;27;41942;-69
2022/02/22 01:13:56;;;;;;;;;;;;;;;3.60;79.91;101095.06;2123632;27;20112;-69
2022/02/22 01:14:57;;;;;;;;;;;;;;;3.57;80.79;101108.28;2123207;27;44218;-69
2022/02/22 01:16:01;;;;;;;;;;;;;;;3.55;81.62;101112.69;2122715;27;42643;-67
2022/02/22 01:17:04;;;;;;;;;;;;;;;3.51;80.23;101117.06;2122878;27;45953;-68
2022/02/22 01:18:10;;;;;;;;;;;;;;;3.50;79.47;101115.31;2122604;27;44204;-69
2022/02/22 01:19:12;;;;;;;;;;;;;;;3.48;79.81;101121.44;2123251;27;44293;-69
2022/02/22 01:20:13;;;;;;;;;;;;;;;3.48;80.78;101121.44;2120743;27;31802;-69
2022/02/22 01:21:15;;;;;;;;;;;;;;;3.46;79.66;101128.47;2114514;28;44007;-68
2022/02/22 01:22:17;;;;;;;;;;;;;;;3.47;79.44;101124.97;2113916;28;43567;-68
2022/02/22 01:23:18;;;;;;;;;;;;;;;3.46;80.04;101133.78;2114399;28;43981;-68
2022/02/22 01:24:22;;;;;;;;;;;;;;;3.41;79.82;101133.72;2114202;28;46182;-70
2022/02/22 01:25:26;;;;;;;;;;;;;;;3.40;80.53;101127.53;2114793;28;43945;-69
2022/02/22 01:26:31;;;;;;;;;;;;;;;3.39;80.52;101132.81;2113779;28;44955;-69
2022/02/22 01:27:32;;;;;;;;;;;;;;;3.35;79.95;101131.91;2114858;28;42111;-68
2022/02/22 01:28:36;;;;;;;;;;;;;;;3.32;80.16;101134.53;2113935;28;42018;-68
2022/02/22 01:29:37;;;;;;;;;;;;;;;3.28;80.55;101135.34;2113967;28;45416;-70
2022/02/22 01:30:41;;;;;;;;;;;;;;;3.32;81.41;101141.56;2116598;28;44788;-70
2022/02/22 01:31:43;;;;;;;;;;;;;;;3.24;80.88;101139.72;2114595;28;44184;-70
2022/02/22 01:32:47;;;;;;;;;;;;;;;3.22;81.09;101145.91;2114792;27;20062;-68
2022/02/22 01:33:53;;;;;;;;;;;;;;;3.29;80.31;101131.84;2114174;28;41686;-69
2022/02/22 01:34:55;;;;;;;;;;;;;;;3.28;80.75;101134.47;2113734;27;45332;-69
2022/02/22 01:35:56;;;;;;;;;;;;;;;3.32;80.46;101139.84;2114384;28;45590;-68
2022/02/22 01:36:58;;;;;;;;;;;;;;;3.24;80.77;101152.09;2113736;28;44218;-69
2022/02/22 01:38:00;;;;;;;;;;;;;;;3.22;81.36;101154.72;2114348;28;44987;-68
2022/02/22 01:39:02;;;;;;;;;;;;;;;3.22;80.92;101162.66;2113778;28;43035;-68
2022/02/22 01:40:05;;;;;;;;;;;;;;;3.21;81.91;101159.97;2114242;28;45642;-70
2022/02/22 01:41:07;;;;;;;;;;;;;;;3.15;81.14;101162.56;2114213;28;43582;-68
2022/02/22 01:42:09;;;;;;;;;;;;;;;3.14;81.64;101159.06;2114244;28;44015;-69
2022/02/22 01:43:11;;;;;;;;;;;;;;;3.10;82.04;101159.88;2113776;28;46578;-70
2022/02/22 01:44:14;;;;;;;;;;;;;;;3.06;81.86;101166.88;2114044;28;43415;-68
2022/02/22 01:47:17;;;;;;;;;;;;;;;2.97;82.79;101171.19;2515462;23;19927;31
2022/02/22 01:48:17;;;;;;;;;;;;;;;3.04;82.66;101173.03;2054968;28;20024;-65
2022/02/22 01:49:18;;;;;;;;;;;;;;;3.04;83.42;101170.38;2050518;28;19931;-65
2022/02/22 01:50:18;;;;;;;;;;;;;;;3.06;83.31;101171.28;2048178;28;19934;-64
2022/02/22 01:51:18;;;;;;;;;;;;;;;3.12;83.03;101163.41;2056271;28;19934;-64
2022/02/22 01:52:19;;;;;;;;;;;;;;;3.14;82.63;101167.00;2056516;28;19930;-64
2022/02/22 01:53:19;;;;;;;;;;;;;;;3.14;82.81;101172.28;2048286;28;19938;-65
2022/02/22 01:54:22;;;;;;;;;;;;;;;3.14;83.13;101161.69;2048316;28;20410;-64
2022/02/22 01:55:25;;;;;;;;;;;;;;;3.16;82.83;101173.19;2047974;28;20062;-64
2022/02/22 01:56:26;;;;;;;;;;;;;;;3.14;83.12;101169.63;2048620;28;19926;-65
2022/02/22 01:57:29;;;;;;;;;;;;;;;3.14;83.28;101172.28;2048109;28;21077;-64
2022/02/22 01:58:30;;;;;;;;;;;;;;;3.15;83.55;101176.69;2056860;28;20861;-64
2022/02/22 01:59:36;;;;;;;;;;;;;;;3.17;83.32;101176.69;2055902;28;20068;-65
2022/02/22 02:00:37;;;;;;;;;;;;;;;3.19;83.16;101185.53;2048912;28;19938;-64
2022/02/22 02:01:37;;;;;;;;;;;;;;;3.16;83.03;101193.44;2048069;28;19935;-65
2022/02/22 02:02:38;;;;;;;;;;;;;;;3.13;83.41;101196.94;2048481;28;19931;-64
2022/02/22 02:03:39;;;;;;;;;;;;;;;3.10;83.43;101194.25;2048517;28;20258;-65
2022/02/22 02:04:39;;;;;;;;;;;;;;;3.09;83.40;101192.50;2056672;28;20288;-64
2022/02/22 02:05:40;;;;;;;;;;;;;;;3.09;84.05;101186.28;2056726;28;19930;-64
2022/02/22 02:06:43;;;;;;;;;;;;;;;3.08;83.96;101195.13;2048559;28;20496;-65
2022/02/22 02:07:43;;;;;;;;;;;;;;;3.08;83.84;101187.19;2048430;28;20029;-64
2022/02/22 02:08:43;;;;;;;;;;;;;;;3.04;83.88;101183.63;2048085;28;19931;-65
2022/02/22 02:09:44;;;;;;;;;;;;;;;3.04;84.07;101192.44;2048198;28;19954;-64
2022/02/22 02:10:45;;;;;;;;;;;;;;;3.03;84.45;101198.59;2048291;28;19930;-64
2022/02/22 02:11:56;;;;;;;;;;;;;;;3.03;84.21;101195.06;2048435;28;19930;-64
2022/02/22 02:12:56;;;;;;;;;;;;;;;3.04;84.38;101197.72;2049895;28;19934;-65
2022/02/22 02:13:59;;;;;;;;;;;;;;;3.07;84.41;101191.59;2048153;28;19963;-64
2022/02/22 02:14:59;;;;;;;;;;;;;;;3.11;84.31;101198.69;2056470;28;20897;-65
2022/02/22 02:16:00;;;;;;;;;;;;;;;3.16;84.04;101197.00;2056386;28;19937;-65
2022/02/22 02:17:03;;;;;;;;;;;;;;;3.19;84.11;101193.47;2048501;28;20031;-65
2022/02/22 02:18:03;;;;;;;;;;;;;;;3.20;84.14;101197.91;2048348;28;20057;-64
2022/02/22 02:19:04;;;;;;;;;;;;;;;3.21;84.43;101199.66;2050808;28;19931;-65
2022/02/22 02:20:08;;;;;;;;;;;;;;;3.20;84.72;101206.72;2049049;28;19983;-65
2022/02/22 02:21:12;;;;;;;;;;;;;;;3.25;84.26;101209.44;2048224;28;19967;-65
2022/02/22 02:22:12;;;;;;;;;;;;;;;3.28;84.30;101206.81;2056749;28;19930;-64
2022/02/22 02:23:12;;;;;;;;;;;;;;;3.35;84.74;101221.00;2055945;28;19934;-64
2022/02/22 02:24:13;;;;;;;;;;;;;;;3.35;84.20;101215.72;2056656;28;19931;-64
2022/02/22 02:25:14;;;;;;;;;;;;;;;3.35;84.61;101221.88;2056325;28;19985;-65
2022/02/22 02:26:14;;;;;;;;;;;;;;;3.31;84.12;101216.56;2056417;28;20002;-64
2022/02/22 02:27:15;;;;;;;;;;;;;;;3.29;84.50;101213.88;2048496;28;20043;-64
2022/02/22 02:28:15;;;;;;;;;;;;;;;3.27;84.54;101210.34;2048353;28;19938;-64
2022/02/22 02:29:18;;;;;;;;;;;;;;;3.26;84.89;101208.56;2048310;28;19998;-64
2022/02/22 02:30:18;;;;;;;;;;;;;;;3.31;84.44;101206.84;2048445;28;19983;-64
2022/02/22 02:31:19;;;;;;;;;;;;;;;3.31;83.48;101203.31;2048081;28;19970;-64
2022/02/22 02:32:19;;;;;;;;;;;;;;;3.27;83.94;101207.69;2049030;28;19931;-65
2022/02/22 02:33:20;;;;;;;;;;;;;;;3.23;83.88;101209.41;2048151;28;20364;-65
2022/02/22 02:34:23;;;;;;;;;;;;;;;3.26;83.29;101203.25;2048579;28;19953;-65
2022/02/22 02:35:23;;;;;;;;;;;;;;;3.34;83.44;101212.19;2048485;28;19926;-64
2022/02/22 02:36:26;;;;;;;;;;;;;;;3.30;83.10;101205.06;2048698;28;19935;-64
2022/02/22 02:37:27;;;;;;;;;;;;;;;3.32;82.78;101210.38;2048317;28;20021;-65
2022/02/22 02:38:27;;;;;;;;;;;;;;;3.32;82.22;101206.00;2048532;28;19942;-64
2022/02/22 02:39:28;;;;;;;;;;;;;;;3.38;81.61;101211.34;2047981;28;20364;-65
2022/02/22 02:40:28;;;;;;;;;;;;;;;3.44;81.57;101218.44;2048057;28;19952;-64
2022/02/22 02:41:29;;;;;;;;;;;;;;;3.38;80.99;101203.41;2048165;28;19931;-65
2022/02/22 02:42:29;;;;;;;;;;;;;;;3.32;81.58;101218.31;2048420;28;20293;-64
2022/02/22 02:43:30;;;;;;;;;;;;;;;3.30;82.44;101210.34;2048068;28;19934;-65
2022/02/22 02:44:30;;;;;;;;;;;;;;;3.38;80.70;101211.34;2048182;28;20447;-64
2022/02/22 02:45:31;;;;;;;;;;;;;;;3.34;81.22;101209.53;2055893;28;20323;-64
2022/02/22 02:46:32;;;;;;;;;;;;;;;3.35;80.81;101216.59;2056390;28;19969;-64
2022/02/22 02:47:32;;;;;;;;;;;;;;;3.38;81.62;101210.47;2047884;28;20802;-65
2022/02/22 02:48:35;;;;;;;;;;;;;;;3.36;80.61;101218.38;2055110;28;43979;-65
2022/02/22 02:49:37;;;;;;;;;;;;;;;3.37;80.76;101229.84;2055487;28;44893;-64
2022/02/22 02:50:39;;;;;;;;;;;;;;;3.35;81.35;101221.88;2055695;28;42804;-65
2022/02/22 02:51:42;;;;;;;;;;;;;;;3.36;80.53;101223.69;2055908;28;23199;-64
2022/02/22 02:52:44;;;;;;;;;;;;;;;3.35;80.90;101216.59;2056033;28;43568;-65
2022/02/22 02:53:46;;;;;;;;;;;;;;;3.38;80.86;101229.00;2055887;28;46404;-65
2022/02/22 02:54:47;;;;;;;;;;;;;;;3.36;81.12;101225.44;2055783;28;45820;-65
2022/02/22 02:55:49;;;;;;;;;;;;;;;3.40;80.88;101240.47;2055459;28;45685;-65
2022/02/22 02:56:50;;;;;;;;;;;;;;;3.43;81.46;101241.41;2055820;28;43875;-64
2022/02/22 02:57:55;;;;;;;;;;;;;;;3.47;81.32;101247.63;2056051;28;31729;-65
2022/02/22 02:59:02;;;;;;;;;;;;;;;3.49;82.69;101245.88;2055964;28;43051;-64
2022/02/22 03:00:08;;;;;;;;;;;;;;;3.48;83.77;101251.13;2055678;28;44564;-65
2022/02/22 03:01:09;;;;;;;;;;;;;;;3.42;83.69;101255.50;2057106;28;19990;-65
2022/02/22 03:02:11;;;;;;;;;;;;;;;3.41;84.11;101255.47;2055280;28;45194;-65
2022/02/22 03:03:14;;;;;;;;;;;;;;;3.38;84.25;101268.69;2056780;28;20756;-65
2022/02/22 03:04:19;;;;;;;;;;;;;;;3.38;84.76;101261.63;2055707;28;43278;-65
2022/02/22 03:05:23;;;;;;;;;;;;;;;3.35;85.12;101264.22;2056180;28;39223;-64
2022/02/22 03:06:24;;;;;;;;;;;;;;;3.35;85.53;101256.28;2055525;28;45549;-65
2022/02/22 03:07:29;;;;;;;;;;;;;;;3.31;85.38;101254.47;2055891;28;44026;-65
2022/02/22 03:08:30;;;;;;;;;;;;;;;3.32;86.05;101261.56;2055279;28;46459;-65
2022/02/22 03:09:33;;;;;;;;;;;;;;;3.27;86.03;101272.94;2056592;28;19933;-65
2022/02/22 03:10:35;;;;;;;;;;;;;;;3.24;86.25;101266.75;2055269;28;40230;-65
2022/02/22 03:11:38;;;;;;;;;;;;;;;3.28;86.01;101278.25;2055663;28;46268;-65
2022/02/22 03:12:40;;;;;;;;;;;;;;;3.26;86.27;101280.00;2055495;28;44219;-64
2022/02/22 03:13:44;;;;;;;;;;;;;;;3.22;86.25;101278.19;2055545;28;46144;-65
2022/02/22 03:14:48;;;;;;;;;;;;;;;3.22;86.45;101270.25;2055579;28;43747;-64
2022/02/22 03:15:49;;;;;;;;;;;;;;;3.20;86.62;101279.94;2055674;28;43574;-64
2022/02/22 03:16:51;;;;;;;;;;;;;;;3.14;86.48;101285.13;2055572;28;19930;-65
2022/02/22 03:17:56;;;;;;;;;;;;;;;3.09;86.78;101284.19;2055852;28;44468;-65
2022/02/22 03:18:58;;;;;;;;;;;;;;;3.06;87.32;101283.28;2055325;28;22950;-65
2022/02/22 03:19:59;;;;;;;;;;;;;;;3.01;87.03;101284.09;2055151;28;44798;-65
2022/02/22 03:21:01;;;;;;;;;;;;;;;2.98;86.98;101279.66;2055435;28;43851;-65
2022/02/22 03:22:03;;;;;;;;;;;;;;;2.96;87.26;101273.47;2055941;28;40316;-65
2022/02/22 03:23:07;;;;;;;;;;;;;;;2.92;87.43;101279.56;2055067;28;44530;-65
2022/02/22 03:24:11;;;;;;;;;;;;;;;2.84;87.94;101271.53;2055566;28;45411;-65
2022/02/22 03:25:13;;;;;;;;;;;;;;;2.86;87.77;101279.47;2055108;28;46168;-64
2022/02/22 03:26:14;;;;;;;;;;;;;;;2.87;87.12;101283.88;2055554;28;45222;-65
2022/02/22 03:27:16;;;;;;;;;;;;;;;2.88;87.65;101284.78;2055542;28;43210;-65
2022/02/22 03:28:18;;;;;;;;;;;;;;;2.83;87.01;101279.44;2055701;28;42991;-65
2022/02/22 03:29:20;;;;;;;;;;;;;;;2.79;87.82;101283.78;2055578;28;44241;-65
2022/02/22 03:30:21;;;;;;;;;;;;;;;2.74;87.52;101281.94;2055621;28;36177;-64
2022/02/22 03:31:23;;;;;;;;;;;;;;;2.72;88.11;101279.28;2055382;28;42872;-65
2022/02/22 03:32:24;;;;;;;;;;;;;;;2.71;87.76;101276.59;2055686;28;46314;-65
2022/02/22 03:33:26;;;;;;;;;;;;;;;2.70;88.05;101272.19;2055697;28;42454;-65
2022/02/22 03:34:28;;;;;;;;;;;;;;;2.72;87.70;101276.63;2055750;28;37076;-65
2022/02/22 03:35:29;;;;;;;;;;;;;;;2.71;87.13;101282.81;2056010;28;19933;-65
2022/02/22 03:36:31;;;;;;;;;;;;;;;2.68;87.28;101283.63;2055683;28;43838;-65
2022/02/22 03:37:35;;;;;;;;;;;;;;;2.66;87.88;101279.19;2054900;28;46154;-65
2022/02/22 03:38:36;;;;;;;;;;;;;;;2.65;88.35;101288.84;2055502;28;42703;-65
2022/02/22 03:39:38;;;;;;;;;;;;;;;2.65;87.84;101285.34;2055560;28;20783;-64
2022/02/22 03:40:39;;;;;;;;;;;;;;;2.67;86.92;101286.25;2054833;28;45243;-64
2022/02/22 03:41:41;;;;;;;;;;;;;;;2.66;87.38;101281.84;2055324;28;43092;-65
2022/02/22 03:42:44;;;;;;;;;;;;;;;2.66;87.31;101272.16;2056175;28;19930;-65
2022/02/22 03:43:45;;;;;;;;;;;;;;;2.59;87.39;101285.25;2055653;28;45748;-65
2022/02/22 03:44:49;;;;;;;;;;;;;;;2.59;87.30;101283.50;2055713;28;45604;-65
2022/02/22 03:45:51;;;;;;;;;;;;;;;2.54;86.73;101289.56;2055563;28;44905;-64
2022/02/22 03:46:52;;;;;;;;;;;;;;;2.53;87.59;101293.97;2055847;28;36319;-65
2022/02/22 03:47:55;;;;;;;;;;;;;;;2.58;86.69;101302.84;2054805;28;46643;-64
2022/02/22 03:48:56;;;;;;;;;;;;;;;2.52;86.95;101305.41;2055658;28;44397;-65
2022/02/22 03:50:01;;;;;;;;;;;;;;;2.50;87.07;101295.69;2055043;28;44039;-65
2022/02/22 03:51:03;;;;;;;;;;;;;;;2.47;87.38;101297.38;2055462;28;46811;-64
2022/02/22 03:52:05;;;;;;;;;;;;;;;2.48;87.81;101295.66;2055151;28;44452;-65
2022/02/22 03:53:06;;;;;;;;;;;;;;;2.50;87.38;101293.94;2054534;28;45347;-65
2022/02/22 03:54:08;;;;;;;;;;;;;;;2.48;86.50;101295.66;2055005;28;44879;-64
2022/02/22 03:55:11;;;;;;;;;;;;;;;2.46;86.91;101300.03;2055570;28;36509;-65
2022/02/22 03:56:12;;;;;;;;;;;;;;;2.48;87.33;101298.31;2055172;28;45960;-65
2022/02/22 03:57:16;;;;;;;;;;;;;;;2.45;86.74;101295.59;2055420;28;42714;-65
2022/02/22 03:58:18;;;;;;;;;;;;;;;2.46;86.72;101300.91;2055157;28;45695;-64
2022/02/22 03:59:19;;;;;;;;;;;;;;;2.44;86.88;101302.66;2055547;28;44740;-65
2022/02/22 04:00:24;;;;;;;;;;;;;;;2.44;86.68;101296.44;2056558;28;20814;-65
2022/02/22 04:01:25;;;;;;;;;;;;;;;2.41;86.94;101304.34;2055130;28;44144;-65
2022/02/22 04:02:27;;;;;;;;;;;;;;;2.38;87.29;101309.56;2056201;28;19931;-65
2022/02/22 04:03:29;;;;;;;;;;;;;;;2.44;87.15;101317.59;2055478;28;34732;-65
2022/02/22 04:04:30;;;;;;;;;;;;;;;2.40;86.71;101321.94;2055491;28;44044;-64
2022/02/22 04:05:32;;;;;;;;;;;;;;;2.38;87.31;101328.06;2055538;28;44054;-64
2022/02/22 04:06:34;;;;;;;;;;;;;;;2.36;87.23;101340.38;2054896;28;44226;-65
2022/02/22 04:07:36;;;;;;;;;;;;;;;2.29;87.34;101334.97;2055403;28;45831;-64
2022/02/22 04:08:37;;;;;;;;;;;;;;;2.24;88.09;101339.31;2055405;28;45638;-65
2022/02/22 04:09:39;;;;;;;;;;;;;;;2.21;87.75;101347.16;2055420;28;45949;-64
2022/02/22 04:10:41;;;;;;;;;;;;;;;2.23;87.31;101356.00;2062682;28;37182;-65
2022/02/22 04:11:44;;;;;;;;;;;;;;;2.20;87.81;101361.22;2063663;28;19933;-64
2022/02/22 04:12:46;;;;;;;;;;;;;;;2.14;87.38;101360.25;2054948;28;46085;-64
2022/02/22 04:13:50;;;;;;;;;;;;;;;2.05;87.67;101358.31;2055209;28;45541;-64
2022/02/22 04:14:52;;;;;;;;;;;;;;;2.03;87.68;101360.06;2055210;28;44903;-64
2022/02/22 04:15:53;;;;;;;;;;;;;;;1.98;88.72;101353.78;2055025;28;44186;-64
2022/02/22 04:16:55;;;;;;;;;;;;;;;1.96;88.29;101351.13;2055228;28;43520;-65
2022/02/22 04:17:56;;;;;;;;;;;;;;;1.96;88.18;101352.88;2055522;28;44528;-65
2022/02/22 04:18:58;;;;;;;;;;;;;;;1.98;89.01;101348.50;2062569;28;45579;-63
2022/02/22 04:20:00;;;;;;;;;;;;;;;2.00;89.08;101344.13;2062780;28;44688;-64
2022/02/22 04:21:01;;;;;;;;;;;;;;;1.95;88.91;101343.16;2055253;28;44556;-64
2022/02/22 04:22:03;;;;;;;;;;;;;;;2.02;88.73;101339.78;2055679;28;44681;-64
2022/02/22 04:23:05;;;;;;;;;;;;;;;2.04;88.55;101332.75;2055158;28;43872;-65
2022/02/22 04:24:09;;;;;;;;;;;;;;;2.03;87.91;101345.09;2055460;28;42832;-64
2022/02/22 04:25:11;;;;;;;;;;;;;;;2.07;nan;101343.41;2055293;28;45747;-63
2022/02/22 04:26:12;;;;;;;;;;;;;;;2.04;88.38;101345.97;2055072;28;46112;-64
2022/02/22 04:27:14;;;;;;;;;;;;;;;2.03;88.12;101352.13;2054860;28;45154;-64
2022/02/22 04:28:15;;;;;;;;;;;;;;;2.05;88.60;101350.41;2054701;28;46465;-63
2022/02/22 04:29:17;;;;;;;;;;;;;;;2.08;88.22;101361.91;2054988;28;38685;-64
2022/02/22 04:30:19;;;;;;;;;;;;;;;2.11;88.13;101350.50;2055623;28;20065;-63
2022/02/22 04:31:20;;;;;;;;;;;;;;;2.12;88.32;101344.38;2054760;28;43816;-64
2022/02/22 04:32:22;;;;;;;;;;;;;;;2.12;88.13;101347.00;2055039;28;45532;-64
2022/02/22 04:33:25;;;;;;;;;;;;;;;2.09;88.09;101349.59;2056786;28;45397;-64
2022/02/22 04:34:27;;;;;;;;;;;;;;;2.10;88.26;101346.97;2056561;28;44644;-64
2022/02/22 04:35:29;;;;;;;;;;;;;;;2.13;87.31;101359.34;2056171;28;45759;-64
2022/02/22 04:36:31;;;;;;;;;;;;;;;2.09;88.13;101363.66;2056763;28;45871;-63
2022/02/22 04:37:32;;;;;;;;;;;;;;;2.12;88.41;101365.50;2056571;28;45701;-64
2022/02/22 04:38:34;;;;;;;;;;;;;;;2.12;87.02;101365.50;2056087;28;46294;-63
2022/02/22 04:39:35;;;;;;;;;;;;;;;2.14;87.62;101360.25;2056623;28;45486;-64
2022/02/22 04:40:37;;;;;;;;;;;;;;;2.18;87.89;101357.69;2056351;28;44037;-64
2022/02/22 04:41:39;;;;;;;;;;;;;;;2.14;86.91;101361.13;2056439;28;44744;-63
2022/02/22 04:42:41;;;;;;;;;;;;;;;2.16;87.08;101364.69;2056451;28;42859;-64
2022/02/22 04:43:43;;;;;;;;;;;;;;;2.11;87.76;101371.63;2056839;28;40969;-64
2022/02/22 04:44:47;;;;;;;;;;;;;;;2.12;87.64;101372.50;2057172;28;44492;-64
2022/02/22 04:45:49;;;;;;;;;;;;;;;2.10;87.91;101369.88;2056628;28;44206;-64
2022/02/22 04:46:50;;;;;;;;;;;;;;;2.04;88.40;101369.75;2056797;28;46753;-63
2022/02/22 04:47:56;;;;;;;;;;;;;;;2.00;87.46;101367.91;2057246;28;19933;-64
2022/02/22 04:48:57;;;;;;;;;;;;;;;1.97;87.59;101363.44;2056144;28;45606;-64
2022/02/22 04:50:02;;;;;;;;;;;;;;;1.95;87.80;101369.56;2057476;28;20065;-64
2022/02/22 04:51:04;;;;;;;;;;;;;;;1.91;88.35;101385.34;2057586;28;19925;-64
2022/02/22 04:52:08;;;;;;;;;;;;;;;1.93;88.92;101381.84;2057411;28;20013;-64
2022/02/22 04:53:10;;;;;;;;;;;;;;;1.88;87.84;101377.38;2057578;28;20009;-65
2022/02/22 04:54:12;;;;;;;;;;;;;;;1.82;87.66;101374.59;2056093;28;44284;-64
2022/02/22 04:55:13;;;;;;;;;;;;;;;1.83;88.80;101376.41;2056493;28;45949;-63
2022/02/22 04:56:15;;;;;;;;;;;;;;;1.74;88.79;101378.81;2056279;28;44202;-64
2022/02/22 04:57:18;;;;;;;;;;;;;;;1.81;89.11;101383.41;2056003;28;46417;-64
2022/02/22 04:58:20;;;;;;;;;;;;;;;1.80;88.94;101376.31;2056805;28;42746;-64
2022/02/22 04:59:24;;;;;;;;;;;;;;;1.80;88.90;101378.97;2056509;28;45559;-64
2022/02/22 05:00:25;;;;;;;;;;;;;;;1.83;89.15;101386.97;2056937;28;39427;-64
2022/02/22 05:01:27;;;;;;;;;;;;;;;1.86;88.22;101392.28;2056503;28;43963;-64
2022/02/22 05:02:29;;;;;;;;;;;;;;;1.83;88.20;101394.88;2056159;28;46639;-64
2022/02/22 05:03:32;;;;;;;;;;;;;;;1.79;88.84;101400.94;2057316;28;20148;-64
2022/02/22 05:04:34;;;;;;;;;;;;;;;1.79;87.93;101400.06;2056916;28;44298;-64
2022/02/22 05:05:35;;;;;;;;;;;;;;;1.73;88.85;101403.47;2056896;28;39118;-64
2022/02/22 05:06:38;;;;;;;;;;;;;;;1.72;89.38;101404.31;2057717;28;19933;-64
2022/02/22 05:07:39;;;;;;;;;;;;;;;1.75;89.12;101401.75;2055975;28;44050;-64
2022/02/22 05:08:41;;;;;;;;;;;;;;;1.68;88.86;101397.19;2057528;28;20984;-64
2022/02/22 05:09:42;;;;;;;;;;;;;;;1.70;88.43;101395.47;2056482;28;45882;-64
2022/02/22 05:10:44;;;;;;;;;;;;;;;1.73;89.01;101392.03;2056182;28;34104;-65
2022/02/22 05:11:46;;;;;;;;;;;;;;;1.70;89.38;101390.19;2056315;28;43148;-64
2022/02/22 05:12:47;;;;;;;;;;;;;;;1.71;89.04;101390.22;2056489;28;43223;-64
2022/02/22 05:13:51;;;;;;;;;;;;;;;1.66;nan;101393.63;2055360;28;31982;-64
2022/02/22 05:14:56;;;;;;;;;;;;;;;1.67;88.35;101387.47;2057186;28;19918;-64
2022/02/22 05:15:57;;;;;;;;;;;;;;;1.64;88.58;101385.69;2056064;28;46853;-64
2022/02/22 05:16:59;;;;;;;;;;;;;;;1.67;89.01;101379.56;2056169;28;43068;-64
2022/02/22 05:18:01;;;;;;;;;;;;;;;1.61;89.11;101380.31;2056377;28;44253;-64
2022/02/22 05:19:04;;;;;;;;;;;;;;;1.58;88.92;101385.56;2056407;28;45762;-64
2022/02/22 05:20:07;;;;;;;;;;;;;;;1.58;88.86;101384.66;2056558;28;43973;-64
2022/02/22 05:21:09;;;;;;;;;;;;;;;1.53;89.92;101382.81;2056366;28;46835;-64
2022/02/22 05:22:10;;;;;;;;;;;;;;;1.54;89.75;101386.34;2056068;28;42858;-64
2022/02/22 05:23:14;;;;;;;;;;;;;;;1.53;90.18;101396.00;2056355;28;39638;-64
2022/02/22 05:24:16;;;;;;;;;;;;;;;1.52;89.38;101388.06;2056201;28;45864;-64
2022/02/22 05:25:18;;;;;;;;;;;;;;;1.55;90.00;101389.88;2057380;28;19993;-64